sensor_id;sensor_type;location;lat;lon;timestamp;P1;durP1;ratioP1;P2;durP2;ratioP2
43694;SDS011;29300;43.560;1.294;2022-12-18T00:01:42;6.35;;;4.07;;
43694;SDS011;29300;43.560;1.294;2022-12-18T00:04:14;6.40;;;4.80;;
43694;SDS011;29300;43.560;1.294;2022-12-18T00:06:51;5.07;;;4.13;;
43694;SDS011;29300;43.560;1.294;2022-12-18T00:09:17;5.70;;;4.38;;
43694;SDS011;29300;43.560;1.294;2022-12-18T00:11:43;4.72;;;3.60;;
43694;SDS011;29300;43.560;1.294;2022-12-18T00:14:10;5.30;;;4.18;;
43694;SDS011;29300;43.560;1.294;2022-12-18T00:16:37;4.47;;;3.60;;
43694;SDS011;29300;43.560;1.294;2022-12-18T00:19:03;4.68;;;3.35;;
43694;SDS011;29300;43.560;1.294;2022-12-18T00:21:30;5.80;;;4.10;;
43694;SDS011;29300;43.560;1.294;2022-12-18T00:23:57;4.32;;;3.72;;
43694;SDS011;29300;43.560;1.294;2022-12-18T00:26:28;4.22;;;3.83;;
43694;SDS011;29300;43.560;1.294;2022-12-18T00:28:57;4.82;;;3.85;;
43694;SDS011;29300;43.560;1.294;2022-12-18T00:31:24;5.30;;;3.88;;
43694;SDS011;29300;43.560;1.294;2022-12-18T00:33:51;4.20;;;3.78;;
43694;SDS011;29300;43.560;1.294;2022-12-18T00:36:19;4.18;;;3.78;;
43694;SDS011;29300;43.560;1.294;2022-12-18T00:38:46;5.13;;;3.60;;
43694;SDS011;29300;43.560;1.294;2022-12-18T00:41:13;3.35;;;2.97;;
43694;SDS011;29300;43.560;1.294;2022-12-18T00:44:03;4.43;;;3.53;;
43694;SDS011;29300;43.560;1.294;2022-12-18T00:46:29;5.10;;;3.78;;
43694;SDS011;29300;43.560;1.294;2022-12-18T00:48:55;3.85;;;3.30;;
43694;SDS011;29300;43.560;1.294;2022-12-18T00:51:22;4.20;;;3.58;;
43694;SDS011;29300;43.560;1.294;2022-12-18T00:53:48;5.00;;;3.22;;
43694;SDS011;29300;43.560;1.294;2022-12-18T00:56:14;4.57;;;3.58;;
43694;SDS011;29300;43.560;1.294;2022-12-18T00:58:40;4.05;;;3.38;;
43694;SDS011;29300;43.560;1.294;2022-12-18T01:01:06;4.47;;;3.50;;
43694;SDS011;29300;43.560;1.294;2022-12-18T01:03:32;4.82;;;3.47;;
43694;SDS011;29300;43.560;1.294;2022-12-18T01:05:58;3.72;;;3.35;;
43694;SDS011;29300;43.560;1.294;2022-12-18T01:08:23;4.20;;;3.47;;
43694;SDS011;29300;43.560;1.294;2022-12-18T01:10:49;4.47;;;3.80;;
43694;SDS011;29300;43.560;1.294;2022-12-18T01:13:15;6.05;;;4.05;;
43694;SDS011;29300;43.560;1.294;2022-12-18T01:15:47;5.72;;;4.15;;
43694;SDS011;29300;43.560;1.294;2022-12-18T01:18:14;5.15;;;3.60;;
43694;SDS011;29300;43.560;1.294;2022-12-18T01:20:39;5.53;;;4.13;;
43694;SDS011;29300;43.560;1.294;2022-12-18T01:23:05;6.93;;;4.10;;
43694;SDS011;29300;43.560;1.294;2022-12-18T01:25:31;5.05;;;4.03;;
43694;SDS011;29300;43.560;1.294;2022-12-18T01:27:56;5.50;;;4.00;;
43694;SDS011;29300;43.560;1.294;2022-12-18T01:30:22;5.93;;;4.47;;
43694;SDS011;29300;43.560;1.294;2022-12-18T01:32:48;5.60;;;4.43;;
43694;SDS011;29300;43.560;1.294;2022-12-18T01:35:14;5.78;;;4.38;;
43694;SDS011;29300;43.560;1.294;2022-12-18T01:37:40;4.78;;;4.07;;
43694;SDS011;29300;43.560;1.294;2022-12-18T01:40:05;4.65;;;3.78;;
43694;SDS011;29300;43.560;1.294;2022-12-18T01:42:32;5.93;;;4.40;;
43694;SDS011;29300;43.560;1.294;2022-12-18T01:50:09;5.25;;;4.20;;
43694;SDS011;29300;43.560;1.294;2022-12-18T01:52:38;5.90;;;4.22;;
43694;SDS011;29300;43.560;1.294;2022-12-18T01:55:07;5.30;;;4.40;;
43694;SDS011;29300;43.560;1.294;2022-12-18T01:57:34;4.53;;;4.00;;
43694;SDS011;29300;43.560;1.294;2022-12-18T02:00:01;4.50;;;3.90;;
43694;SDS011;29300;43.560;1.294;2022-12-18T02:02:33;5.47;;;4.35;;
43694;SDS011;29300;43.560;1.294;2022-12-18T02:04:59;5.60;;;4.32;;
43694;SDS011;29300;43.560;1.294;2022-12-18T02:12:42;4.75;;;3.65;;
43694;SDS011;29300;43.560;1.294;2022-12-18T02:15:15;5.03;;;4.53;;
43694;SDS011;29300;43.560;1.294;2022-12-18T02:17:58;4.40;;;3.65;;
43694;SDS011;29300;43.560;1.294;2022-12-18T02:28:18;3.53;;;3.22;;
43694;SDS011;29300;43.560;1.294;2022-12-18T02:30:47;3.88;;;3.47;;
43694;SDS011;29300;43.560;1.294;2022-12-18T02:33:15;4.35;;;3.42;;
43694;SDS011;29300;43.560;1.294;2022-12-18T02:35:44;3.60;;;3.30;;
43694;SDS011;29300;43.560;1.294;2022-12-18T02:38:11;3.95;;;3.53;;
43694;SDS011;29300;43.560;1.294;2022-12-18T02:40:39;4.40;;;3.25;;
43694;SDS011;29300;43.560;1.294;2022-12-18T02:43:08;4.43;;;3.33;;
43694;SDS011;29300;43.560;1.294;2022-12-18T02:45:35;4.25;;;3.60;;
43694;SDS011;29300;43.560;1.294;2022-12-18T02:48:11;3.95;;;3.55;;
43694;SDS011;29300;43.560;1.294;2022-12-18T02:50:48;5.93;;;3.40;;
43694;SDS011;29300;43.560;1.294;2022-12-18T02:53:37;4.15;;;2.90;;
43694;SDS011;29300;43.560;1.294;2022-12-18T02:56:18;4.00;;;3.00;;
43694;SDS011;29300;43.560;1.294;2022-12-18T02:59:01;3.92;;;2.97;;
43694;SDS011;29300;43.560;1.294;2022-12-18T03:04:43;3.25;;;2.97;;
43694;SDS011;29300;43.560;1.294;2022-12-18T03:07:26;3.90;;;3.50;;
43694;SDS011;29300;43.560;1.294;2022-12-18T03:10:00;4.07;;;3.33;;
43694;SDS011;29300;43.560;1.294;2022-12-18T03:17:40;2.88;;;2.63;;
43694;SDS011;29300;43.560;1.294;2022-12-18T03:20:15;4.55;;;3.53;;
43694;SDS011;29300;43.560;1.294;2022-12-18T03:22:44;4.43;;;3.60;;
43694;SDS011;29300;43.560;1.294;2022-12-18T03:25:14;4.03;;;3.58;;
43694;SDS011;29300;43.560;1.294;2022-12-18T03:27:44;3.67;;;3.13;;
43694;SDS011;29300;43.560;1.294;2022-12-18T03:30:14;3.33;;;3.03;;
43694;SDS011;29300;43.560;1.294;2022-12-18T03:35:32;3.97;;;3.08;;
43694;SDS011;29300;43.560;1.294;2022-12-18T03:38:00;4.43;;;3.38;;
43694;SDS011;29300;43.560;1.294;2022-12-18T03:40:31;3.20;;;2.85;;
43694;SDS011;29300;43.560;1.294;2022-12-18T03:43:08;4.45;;;3.47;;
43694;SDS011;29300;43.560;1.294;2022-12-18T03:45:48;3.88;;;2.97;;
43694;SDS011;29300;43.560;1.294;2022-12-18T03:55:57;4.30;;;3.47;;
43694;SDS011;29300;43.560;1.294;2022-12-18T03:58:25;3.53;;;2.97;;
43694;SDS011;29300;43.560;1.294;2022-12-18T04:00:52;3.47;;;2.75;;
43694;SDS011;29300;43.560;1.294;2022-12-18T04:03:21;3.45;;;3.00;;
43694;SDS011;29300;43.560;1.294;2022-12-18T04:05:50;4.88;;;3.50;;
43694;SDS011;29300;43.560;1.294;2022-12-18T04:08:17;3.95;;;3.28;;
43694;SDS011;29300;43.560;1.294;2022-12-18T04:10:43;3.78;;;2.90;;
43694;SDS011;29300;43.560;1.294;2022-12-18T04:13:09;4.60;;;3.75;;
43694;SDS011;29300;43.560;1.294;2022-12-18T04:15:35;4.20;;;3.47;;
43694;SDS011;29300;43.560;1.294;2022-12-18T04:18:02;4.65;;;3.53;;
43694;SDS011;29300;43.560;1.294;2022-12-18T04:20:28;5.72;;;3.55;;
43694;SDS011;29300;43.560;1.294;2022-12-18T04:22:54;4.38;;;3.58;;
43694;SDS011;29300;43.560;1.294;2022-12-18T04:25:20;3.90;;;3.25;;
43694;SDS011;29300;43.560;1.294;2022-12-18T04:27:45;5.40;;;3.70;;
43694;SDS011;29300;43.560;1.294;2022-12-18T04:30:11;4.28;;;3.17;;
43694;SDS011;29300;43.560;1.294;2022-12-18T04:32:37;4.70;;;3.53;;
43694;SDS011;29300;43.560;1.294;2022-12-18T04:35:02;4.10;;;3.30;;
43694;SDS011;29300;43.560;1.294;2022-12-18T04:37:31;4.40;;;3.45;;
43694;SDS011;29300;43.560;1.294;2022-12-18T04:39:57;4.90;;;3.42;;
43694;SDS011;29300;43.560;1.294;2022-12-18T04:42:22;4.13;;;3.55;;
43694;SDS011;29300;43.560;1.294;2022-12-18T04:44:48;3.90;;;3.05;;
43694;SDS011;29300;43.560;1.294;2022-12-18T04:47:14;4.07;;;3.15;;
43694;SDS011;29300;43.560;1.294;2022-12-18T04:49:40;5.93;;;3.85;;
43694;SDS011;29300;43.560;1.294;2022-12-18T04:52:06;4.05;;;3.65;;
43694;SDS011;29300;43.560;1.294;2022-12-18T04:54:32;4.40;;;3.40;;
43694;SDS011;29300;43.560;1.294;2022-12-18T04:56:57;5.07;;;3.60;;
43694;SDS011;29300;43.560;1.294;2022-12-18T04:59:23;3.95;;;3.42;;
43694;SDS011;29300;43.560;1.294;2022-12-18T05:01:49;4.93;;;3.72;;
43694;SDS011;29300;43.560;1.294;2022-12-18T05:04:14;5.18;;;3.78;;
43694;SDS011;29300;43.560;1.294;2022-12-18T05:06:40;5.47;;;3.83;;
43694;SDS011;29300;43.560;1.294;2022-12-18T05:09:06;3.50;;;3.00;;
43694;SDS011;29300;43.560;1.294;2022-12-18T05:11:32;4.95;;;3.67;;
43694;SDS011;29300;43.560;1.294;2022-12-18T05:13:57;4.53;;;3.42;;
43694;SDS011;29300;43.560;1.294;2022-12-18T05:16:23;4.53;;;3.47;;
43694;SDS011;29300;43.560;1.294;2022-12-18T05:18:49;4.00;;;2.90;;
43694;SDS011;29300;43.560;1.294;2022-12-18T05:21:14;4.00;;;2.92;;
43694;SDS011;29300;43.560;1.294;2022-12-18T05:23:40;3.40;;;3.03;;
43694;SDS011;29300;43.560;1.294;2022-12-18T05:26:06;4.30;;;3.22;;
43694;SDS011;29300;43.560;1.294;2022-12-18T05:28:33;4.00;;;3.08;;
43694;SDS011;29300;43.560;1.294;2022-12-18T05:31:00;3.00;;;2.60;;
43694;SDS011;29300;43.560;1.294;2022-12-18T05:33:29;5.22;;;3.60;;
43694;SDS011;29300;43.560;1.294;2022-12-18T05:35:57;3.88;;;3.25;;
43694;SDS011;29300;43.560;1.294;2022-12-18T05:38:25;3.97;;;3.22;;
43694;SDS011;29300;43.560;1.294;2022-12-18T05:40:52;5.78;;;4.13;;
43694;SDS011;29300;43.560;1.294;2022-12-18T05:43:18;4.07;;;3.42;;
43694;SDS011;29300;43.560;1.294;2022-12-18T05:45:46;4.07;;;2.90;;
43694;SDS011;29300;43.560;1.294;2022-12-18T05:48:13;4.35;;;3.10;;
43694;SDS011;29300;43.560;1.294;2022-12-18T05:50:39;4.85;;;3.50;;
43694;SDS011;29300;43.560;1.294;2022-12-18T05:53:07;3.33;;;2.83;;
43694;SDS011;29300;43.560;1.294;2022-12-18T05:55:33;3.80;;;3.40;;
43694;SDS011;29300;43.560;1.294;2022-12-18T05:58:03;4.28;;;3.40;;
43694;SDS011;29300;43.560;1.294;2022-12-18T06:00:31;4.10;;;3.05;;
43694;SDS011;29300;43.560;1.294;2022-12-18T06:02:58;4.65;;;3.30;;
43694;SDS011;29300;43.560;1.294;2022-12-18T06:05:24;3.50;;;2.83;;
43694;SDS011;29300;43.560;1.294;2022-12-18T06:07:50;3.58;;;3.00;;
43694;SDS011;29300;43.560;1.294;2022-12-18T06:10:16;3.80;;;3.22;;
43694;SDS011;29300;43.560;1.294;2022-12-18T06:12:42;3.70;;;2.75;;
43694;SDS011;29300;43.560;1.294;2022-12-18T06:15:08;3.95;;;3.13;;
43694;SDS011;29300;43.560;1.294;2022-12-18T06:17:34;3.90;;;3.28;;
43694;SDS011;29300;43.560;1.294;2022-12-18T06:19:59;3.45;;;3.00;;
43694;SDS011;29300;43.560;1.294;2022-12-18T06:22:26;3.80;;;2.92;;
43694;SDS011;29300;43.560;1.294;2022-12-18T06:24:52;4.43;;;3.30;;
43694;SDS011;29300;43.560;1.294;2022-12-18T06:27:18;3.70;;;3.25;;
43694;SDS011;29300;43.560;1.294;2022-12-18T06:29:44;4.30;;;3.28;;
43694;SDS011;29300;43.560;1.294;2022-12-18T06:32:10;3.55;;;3.22;;
43694;SDS011;29300;43.560;1.294;2022-12-18T06:34:39;3.45;;;3.15;;
43694;SDS011;29300;43.560;1.294;2022-12-18T06:37:05;4.03;;;3.35;;
43694;SDS011;29300;43.560;1.294;2022-12-18T06:39:31;3.35;;;2.83;;
43694;SDS011;29300;43.560;1.294;2022-12-18T06:41:57;4.13;;;3.05;;
43694;SDS011;29300;43.560;1.294;2022-12-18T06:44:22;4.03;;;2.90;;
43694;SDS011;29300;43.560;1.294;2022-12-18T06:46:48;3.45;;;3.10;;
43694;SDS011;29300;43.560;1.294;2022-12-18T06:49:14;2.97;;;2.67;;
43694;SDS011;29300;43.560;1.294;2022-12-18T06:51:41;3.22;;;2.90;;
43694;SDS011;29300;43.560;1.294;2022-12-18T06:54:06;4.47;;;3.60;;
43694;SDS011;29300;43.560;1.294;2022-12-18T06:56:32;4.18;;;3.33;;
43694;SDS011;29300;43.560;1.294;2022-12-18T06:58:58;3.85;;;3.25;;
43694;SDS011;29300;43.560;1.294;2022-12-18T07:01:24;5.88;;;3.47;;
43694;SDS011;29300;43.560;1.294;2022-12-18T07:03:53;3.53;;;3.22;;
43694;SDS011;29300;43.560;1.294;2022-12-18T07:06:21;3.03;;;2.72;;
43694;SDS011;29300;43.560;1.294;2022-12-18T07:08:48;3.38;;;2.85;;
43694;SDS011;29300;43.560;1.294;2022-12-18T07:11:15;3.45;;;2.85;;
43694;SDS011;29300;43.560;1.294;2022-12-18T07:13:41;3.13;;;2.83;;
43694;SDS011;29300;43.560;1.294;2022-12-18T07:16:11;3.10;;;2.80;;
43694;SDS011;29300;43.560;1.294;2022-12-18T07:21:04;3.47;;;3.13;;
43694;SDS011;29300;43.560;1.294;2022-12-18T07:23:32;4.70;;;3.45;;
43694;SDS011;29300;43.560;1.294;2022-12-18T07:26:09;3.22;;;2.78;;
43694;SDS011;29300;43.560;1.294;2022-12-18T07:28:36;3.58;;;2.55;;
43694;SDS011;29300;43.560;1.294;2022-12-18T07:31:04;4.43;;;3.38;;
43694;SDS011;29300;43.560;1.294;2022-12-18T07:33:40;4.13;;;2.78;;
43694;SDS011;29300;43.560;1.294;2022-12-18T07:36:07;3.08;;;2.78;;
43694;SDS011;29300;43.560;1.294;2022-12-18T07:38:34;4.40;;;3.33;;
43694;SDS011;29300;43.560;1.294;2022-12-18T07:41:04;4.03;;;3.53;;
43694;SDS011;29300;43.560;1.294;2022-12-18T07:43:35;3.65;;;2.80;;
43694;SDS011;29300;43.560;1.294;2022-12-18T07:46:01;6.68;;;4.70;;
43694;SDS011;29300;43.560;1.294;2022-12-18T07:48:28;8.13;;;5.18;;
43694;SDS011;29300;43.560;1.294;2022-12-18T07:50:57;9.25;;;5.80;;
43694;SDS011;29300;43.560;1.294;2022-12-18T07:53:24;9.40;;;5.78;;
43694;SDS011;29300;43.560;1.294;2022-12-18T07:55:54;11.55;;;6.32;;
43694;SDS011;29300;43.560;1.294;2022-12-18T07:58:23;12.38;;;7.03;;
43694;SDS011;29300;43.560;1.294;2022-12-18T08:00:49;12.50;;;7.47;;
43694;SDS011;29300;43.560;1.294;2022-12-18T08:03:15;12.40;;;7.18;;
43694;SDS011;29300;43.560;1.294;2022-12-18T08:05:41;12.75;;;6.95;;
43694;SDS011;29300;43.560;1.294;2022-12-18T08:08:07;11.63;;;7.32;;
43694;SDS011;29300;43.560;1.294;2022-12-18T08:10:32;13.15;;;7.65;;
43694;SDS011;29300;43.560;1.294;2022-12-18T08:12:58;12.70;;;8.02;;
43694;SDS011;29300;43.560;1.294;2022-12-18T08:15:24;13.93;;;7.68;;
43694;SDS011;29300;43.560;1.294;2022-12-18T08:17:49;12.85;;;7.38;;
43694;SDS011;29300;43.560;1.294;2022-12-18T08:20:15;14.55;;;8.00;;
43694;SDS011;29300;43.560;1.294;2022-12-18T08:22:43;15.70;;;8.90;;
43694;SDS011;29300;43.560;1.294;2022-12-18T08:25:09;14.85;;;8.25;;
43694;SDS011;29300;43.560;1.294;2022-12-18T08:27:35;13.50;;;9.00;;
43694;SDS011;29300;43.560;1.294;2022-12-18T08:30:01;16.45;;;8.75;;
43694;SDS011;29300;43.560;1.294;2022-12-18T08:32:28;16.40;;;9.98;;
43694;SDS011;29300;43.560;1.294;2022-12-18T08:34:53;16.15;;;9.27;;
43694;SDS011;29300;43.560;1.294;2022-12-18T08:37:19;17.83;;;10.75;;
43694;SDS011;29300;43.560;1.294;2022-12-18T08:39:45;17.10;;;10.18;;
43694;SDS011;29300;43.560;1.294;2022-12-18T08:42:10;14.82;;;9.65;;
43694;SDS011;29300;43.560;1.294;2022-12-18T08:44:55;15.23;;;8.48;;
43694;SDS011;29300;43.560;1.294;2022-12-18T08:47:22;18.38;;;9.75;;
43694;SDS011;29300;43.560;1.294;2022-12-18T08:49:47;13.40;;;8.68;;
43694;SDS011;29300;43.560;1.294;2022-12-18T08:52:13;14.18;;;8.57;;
43694;SDS011;29300;43.560;1.294;2022-12-18T08:54:39;13.45;;;8.32;;
43694;SDS011;29300;43.560;1.294;2022-12-18T08:57:04;11.18;;;7.63;;
43694;SDS011;29300;43.560;1.294;2022-12-18T08:59:30;11.98;;;7.32;;
43694;SDS011;29300;43.560;1.294;2022-12-18T09:01:56;10.68;;;6.72;;
43694;SDS011;29300;43.560;1.294;2022-12-18T09:04:22;9.88;;;6.30;;
43694;SDS011;29300;43.560;1.294;2022-12-18T09:06:47;11.60;;;7.47;;
43694;SDS011;29300;43.560;1.294;2022-12-18T09:09:13;12.27;;;7.20;;
43694;SDS011;29300;43.560;1.294;2022-12-18T09:11:39;9.23;;;6.90;;
43694;SDS011;29300;43.560;1.294;2022-12-18T09:14:04;8.68;;;6.18;;
43694;SDS011;29300;43.560;1.294;2022-12-18T09:16:30;7.07;;;5.57;;
43694;SDS011;29300;43.560;1.294;2022-12-18T09:18:57;7.70;;;5.60;;
43694;SDS011;29300;43.560;1.294;2022-12-18T09:21:31;10.60;;;6.68;;
43694;SDS011;29300;43.560;1.294;2022-12-18T09:23:58;7.95;;;5.90;;
43694;SDS011;29300;43.560;1.294;2022-12-18T09:26:25;8.85;;;5.65;;
43694;SDS011;29300;43.560;1.294;2022-12-18T09:28:51;8.40;;;6.22;;
43694;SDS011;29300;43.560;1.294;2022-12-18T09:31:18;8.35;;;5.30;;
43694;SDS011;29300;43.560;1.294;2022-12-18T09:33:45;8.05;;;5.80;;
43694;SDS011;29300;43.560;1.294;2022-12-18T09:36:12;5.82;;;5.00;;
43694;SDS011;29300;43.560;1.294;2022-12-18T09:38:41;7.30;;;4.95;;
43694;SDS011;29300;43.560;1.294;2022-12-18T09:41:31;8.32;;;5.30;;
43694;SDS011;29300;43.560;1.294;2022-12-18T09:49:26;8.65;;;5.97;;
43694;SDS011;29300;43.560;1.294;2022-12-18T09:52:00;7.57;;;5.65;;
43694;SDS011;29300;43.560;1.294;2022-12-18T09:57:05;8.55;;;5.82;;
43694;SDS011;29300;43.560;1.294;2022-12-18T09:59:36;10.45;;;5.60;;
43694;SDS011;29300;43.560;1.294;2022-12-18T10:02:15;8.00;;;5.15;;
43694;SDS011;29300;43.560;1.294;2022-12-18T10:04:50;7.85;;;5.63;;
43694;SDS011;29300;43.560;1.294;2022-12-18T10:07:40;8.38;;;5.38;;
43694;SDS011;29300;43.560;1.294;2022-12-18T10:21:12;7.38;;;4.85;;
43694;SDS011;29300;43.560;1.294;2022-12-18T10:23:50;7.47;;;5.35;;
43694;SDS011;29300;43.560;1.294;2022-12-18T10:26:22;6.18;;;4.70;;
43694;SDS011;29300;43.560;1.294;2022-12-18T10:28:48;7.65;;;4.30;;
43694;SDS011;29300;43.560;1.294;2022-12-18T10:31:15;7.68;;;5.20;;
43694;SDS011;29300;43.560;1.294;2022-12-18T10:33:43;7.82;;;4.65;;
43694;SDS011;29300;43.560;1.294;2022-12-18T10:36:09;8.20;;;4.75;;
43694;SDS011;29300;43.560;1.294;2022-12-18T10:38:35;4.78;;;4.20;;
43694;SDS011;29300;43.560;1.294;2022-12-18T10:41:02;6.10;;;4.28;;
43694;SDS011;29300;43.560;1.294;2022-12-18T10:44:11;4.97;;;4.07;;
43694;SDS011;29300;43.560;1.294;2022-12-18T10:46:36;4.72;;;3.63;;
43694;SDS011;29300;43.560;1.294;2022-12-18T10:49:02;6.68;;;3.58;;
43694;SDS011;29300;43.560;1.294;2022-12-18T10:51:32;7.10;;;4.32;;
43694;SDS011;29300;43.560;1.294;2022-12-18T10:56:27;6.85;;;4.32;;
43694;SDS011;29300;43.560;1.294;2022-12-18T10:59:01;8.23;;;4.13;;
43694;SDS011;29300;43.560;1.294;2022-12-18T11:01:53;6.45;;;4.40;;
43694;SDS011;29300;43.560;1.294;2022-12-18T11:04:26;5.57;;;4.03;;
43694;SDS011;29300;43.560;1.294;2022-12-18T11:06:59;6.57;;;3.97;;
43694;SDS011;29300;43.560;1.294;2022-12-18T11:09:31;5.05;;;3.63;;
43694;SDS011;29300;43.560;1.294;2022-12-18T11:12:02;5.57;;;3.90;;
43694;SDS011;29300;43.560;1.294;2022-12-18T11:17:30;5.60;;;4.28;;
43694;SDS011;29300;43.560;1.294;2022-12-18T11:20:00;5.57;;;4.47;;
43694;SDS011;29300;43.560;1.294;2022-12-18T11:22:29;5.00;;;3.90;;
43694;SDS011;29300;43.560;1.294;2022-12-18T11:27:41;5.20;;;4.22;;
43694;SDS011;29300;43.560;1.294;2022-12-18T11:30:45;4.63;;;3.88;;
43694;SDS011;29300;43.560;1.294;2022-12-18T11:33:20;4.43;;;3.60;;
43694;SDS011;29300;43.560;1.294;2022-12-18T11:35:51;4.95;;;3.80;;
43694;SDS011;29300;43.560;1.294;2022-12-18T11:41:32;5.30;;;3.90;;
43694;SDS011;29300;43.560;1.294;2022-12-18T11:44:08;5.55;;;4.20;;
43694;SDS011;29300;43.560;1.294;2022-12-18T11:46:43;8.02;;;4.05;;
43694;SDS011;29300;43.560;1.294;2022-12-18T11:49:24;4.25;;;3.85;;
43694;SDS011;29300;43.560;1.294;2022-12-18T11:51:55;4.57;;;4.03;;
43694;SDS011;29300;43.560;1.294;2022-12-18T11:54:26;5.88;;;3.88;;
43694;SDS011;29300;43.560;1.294;2022-12-18T12:05:00;4.18;;;3.17;;
43694;SDS011;29300;43.560;1.294;2022-12-18T12:07:45;4.50;;;3.50;;
43694;SDS011;29300;43.560;1.294;2022-12-18T12:13:27;6.78;;;3.38;;
43694;SDS011;29300;43.560;1.294;2022-12-18T12:16:21;5.40;;;3.80;;
43694;SDS011;29300;43.560;1.294;2022-12-18T12:27:32;5.75;;;3.67;;
43694;SDS011;29300;43.560;1.294;2022-12-18T12:30:07;5.00;;;3.92;;
43694;SDS011;29300;43.560;1.294;2022-12-18T12:32:37;5.28;;;3.90;;
43694;SDS011;29300;43.560;1.294;2022-12-18T12:40:43;6.13;;;4.30;;
43694;SDS011;29300;43.560;1.294;2022-12-18T12:43:20;5.25;;;4.10;;
43694;SDS011;29300;43.560;1.294;2022-12-18T12:45:54;7.70;;;4.60;;
43694;SDS011;29300;43.560;1.294;2022-12-18T12:51:30;6.07;;;4.10;;
43694;SDS011;29300;43.560;1.294;2022-12-18T12:53:59;7.15;;;4.65;;
43694;SDS011;29300;43.560;1.294;2022-12-18T12:56:31;6.72;;;4.70;;
43694;SDS011;29300;43.560;1.294;2022-12-18T12:59:14;10.60;;;5.93;;
43694;SDS011;29300;43.560;1.294;2022-12-18T13:04:29;5.88;;;4.82;;
43694;SDS011;29300;43.560;1.294;2022-12-18T13:07:14;6.75;;;5.18;;
43694;SDS011;29300;43.560;1.294;2022-12-18T13:13:00;7.18;;;5.07;;
43694;SDS011;29300;43.560;1.294;2022-12-18T13:15:33;7.18;;;5.38;;
43694;SDS011;29300;43.560;1.294;2022-12-18T13:20:34;7.72;;;5.18;;
43694;SDS011;29300;43.560;1.294;2022-12-18T13:25:50;8.45;;;4.57;;
43694;SDS011;29300;43.560;1.294;2022-12-18T13:28:21;8.25;;;5.38;;
43694;SDS011;29300;43.560;1.294;2022-12-18T13:31:05;5.40;;;4.75;;
43694;SDS011;29300;43.560;1.294;2022-12-18T13:36:26;7.03;;;5.30;;
43694;SDS011;29300;43.560;1.294;2022-12-18T13:39:38;7.80;;;5.18;;
43694;SDS011;29300;43.560;1.294;2022-12-18T13:41:39;7.57;;;5.15;;
43694;SDS011;29300;43.560;1.294;2022-12-18T13:46:53;8.23;;;5.75;;
43694;SDS011;29300;43.560;1.294;2022-12-18T13:51:57;7.22;;;5.72;;
43694;SDS011;29300;43.560;1.294;2022-12-18T13:54:36;8.65;;;5.72;;
43694;SDS011;29300;43.560;1.294;2022-12-18T13:57:05;8.35;;;5.50;;
43694;SDS011;29300;43.560;1.294;2022-12-18T13:59:48;9.93;;;5.75;;
43694;SDS011;29300;43.560;1.294;2022-12-18T14:04:41;9.07;;;6.18;;
43694;SDS011;29300;43.560;1.294;2022-12-18T14:07:14;8.20;;;5.82;;
43694;SDS011;29300;43.560;1.294;2022-12-18T14:09:46;6.93;;;5.28;;
43694;SDS011;29300;43.560;1.294;2022-12-18T14:12:25;7.03;;;5.72;;
43694;SDS011;29300;43.560;1.294;2022-12-18T14:15:55;7.35;;;5.90;;
43694;SDS011;29300;43.560;1.294;2022-12-18T14:20:52;7.88;;;6.10;;
43694;SDS011;29300;43.560;1.294;2022-12-18T14:23:27;8.88;;;5.80;;
43694;SDS011;29300;43.560;1.294;2022-12-18T14:25:56;8.02;;;5.75;;
43694;SDS011;29300;43.560;1.294;2022-12-18T14:28:22;7.80;;;6.35;;
43694;SDS011;29300;43.560;1.294;2022-12-18T14:30:48;7.65;;;5.45;;
43694;SDS011;29300;43.560;1.294;2022-12-18T14:43:35;7.82;;;6.15;;
43694;SDS011;29300;43.560;1.294;2022-12-18T14:46:03;7.18;;;5.88;;
43694;SDS011;29300;43.560;1.294;2022-12-18T14:56:28;5.90;;;4.80;;
43694;SDS011;29300;43.560;1.294;2022-12-18T14:58:59;6.95;;;4.90;;
43694;SDS011;29300;43.560;1.294;2022-12-18T15:04:02;7.93;;;6.00;;
43694;SDS011;29300;43.560;1.294;2022-12-18T15:06:30;7.03;;;5.00;;
43694;SDS011;29300;43.560;1.294;2022-12-18T15:09:23;8.13;;;5.75;;
43694;SDS011;29300;43.560;1.294;2022-12-18T15:11:49;7.00;;;5.57;;
43694;SDS011;29300;43.560;1.294;2022-12-18T15:16:58;6.20;;;4.97;;
43694;SDS011;29300;43.560;1.294;2022-12-18T15:19:41;7.45;;;5.28;;
43694;SDS011;29300;43.560;1.294;2022-12-18T15:22:19;6.57;;;4.93;;
43694;SDS011;29300;43.560;1.294;2022-12-18T15:24:48;6.80;;;5.35;;
43694;SDS011;29300;43.560;1.294;2022-12-18T15:27:21;8.25;;;5.75;;
43694;SDS011;29300;43.560;1.294;2022-12-18T15:30:03;7.72;;;5.43;;
43694;SDS011;29300;43.560;1.294;2022-12-18T15:32:46;7.63;;;5.50;;
43694;SDS011;29300;43.560;1.294;2022-12-18T15:35:16;6.43;;;4.80;;
43694;SDS011;29300;43.560;1.294;2022-12-18T15:37:42;7.55;;;5.63;;
43694;SDS011;29300;43.560;1.294;2022-12-18T15:40:16;8.38;;;5.10;;
43694;SDS011;29300;43.560;1.294;2022-12-18T15:42:50;7.55;;;5.57;;
43694;SDS011;29300;43.560;1.294;2022-12-18T15:45:37;6.13;;;5.13;;
43694;SDS011;29300;43.560;1.294;2022-12-18T15:48:08;6.97;;;5.07;;
43694;SDS011;29300;43.560;1.294;2022-12-18T15:50:47;6.82;;;5.65;;
43694;SDS011;29300;43.560;1.294;2022-12-18T15:53:14;6.82;;;4.93;;
43694;SDS011;29300;43.560;1.294;2022-12-18T15:55:40;8.75;;;5.18;;
43694;SDS011;29300;43.560;1.294;2022-12-18T15:58:24;7.18;;;5.07;;
43694;SDS011;29300;43.560;1.294;2022-12-18T16:00:50;6.95;;;5.20;;
43694;SDS011;29300;43.560;1.294;2022-12-18T16:03:15;6.85;;;4.40;;
43694;SDS011;29300;43.560;1.294;2022-12-18T16:05:41;6.60;;;4.65;;
43694;SDS011;29300;43.560;1.294;2022-12-18T16:08:07;7.03;;;4.82;;
43694;SDS011;29300;43.560;1.294;2022-12-18T16:10:32;7.28;;;5.18;;
43694;SDS011;29300;43.560;1.294;2022-12-18T16:12:59;7.55;;;4.93;;
43694;SDS011;29300;43.560;1.294;2022-12-18T16:15:25;7.22;;;5.32;;
43694;SDS011;29300;43.560;1.294;2022-12-18T16:17:54;7.13;;;5.25;;
43694;SDS011;29300;43.560;1.294;2022-12-18T16:20:21;7.60;;;5.38;;
43694;SDS011;29300;43.560;1.294;2022-12-18T16:22:47;5.93;;;4.57;;
43694;SDS011;29300;43.560;1.294;2022-12-18T16:25:18;5.97;;;4.80;;
43694;SDS011;29300;43.560;1.294;2022-12-18T16:27:46;8.07;;;5.25;;
43694;SDS011;29300;43.560;1.294;2022-12-18T16:30:16;6.38;;;4.60;;
43694;SDS011;29300;43.560;1.294;2022-12-18T16:32:46;6.43;;;4.40;;
43694;SDS011;29300;43.560;1.294;2022-12-18T16:35:13;5.93;;;4.68;;
43694;SDS011;29300;43.560;1.294;2022-12-18T16:37:40;5.28;;;4.40;;
43694;SDS011;29300;43.560;1.294;2022-12-18T16:40:07;5.70;;;4.47;;
43694;SDS011;29300;43.560;1.294;2022-12-18T16:42:35;6.75;;;5.15;;
43694;SDS011;29300;43.560;1.294;2022-12-18T16:45:02;5.00;;;4.20;;
43694;SDS011;29300;43.560;1.294;2022-12-18T16:47:29;5.05;;;4.53;;
43694;SDS011;29300;43.560;1.294;2022-12-18T16:49:54;6.90;;;4.30;;
43694;SDS011;29300;43.560;1.294;2022-12-18T16:52:20;5.68;;;4.55;;
43694;SDS011;29300;43.560;1.294;2022-12-18T16:54:46;6.03;;;4.43;;
43694;SDS011;29300;43.560;1.294;2022-12-18T16:57:13;6.22;;;4.72;;
43694;SDS011;29300;43.560;1.294;2022-12-18T16:59:40;6.55;;;4.55;;
43694;SDS011;29300;43.560;1.294;2022-12-18T17:02:10;5.95;;;4.40;;
43694;SDS011;29300;43.560;1.294;2022-12-18T17:04:39;8.73;;;5.15;;
43694;SDS011;29300;43.560;1.294;2022-12-18T17:07:05;7.28;;;4.43;;
43694;SDS011;29300;43.560;1.294;2022-12-18T17:09:32;7.28;;;4.78;;
43694;SDS011;29300;43.560;1.294;2022-12-18T17:11:57;5.53;;;4.35;;
43694;SDS011;29300;43.560;1.294;2022-12-18T17:14:24;5.68;;;4.20;;
43694;SDS011;29300;43.560;1.294;2022-12-18T17:16:51;6.53;;;3.90;;
43694;SDS011;29300;43.560;1.294;2022-12-18T17:19:18;5.68;;;4.18;;
43694;SDS011;29300;43.560;1.294;2022-12-18T17:21:48;6.18;;;4.10;;
43694;SDS011;29300;43.560;1.294;2022-12-18T17:24:15;6.97;;;4.35;;
43694;SDS011;29300;43.560;1.294;2022-12-18T17:26:41;9.35;;;4.90;;